sensor_id;sensor_type;location;lat;lon;timestamp;temperature;humidity
41256;DHT22;26989;45.524;10.938;2023-09-19T00:00:44;19.80;99.90
41256;DHT22;26989;45.524;10.938;2023-09-19T00:03:14;19.70;99.90
41256;DHT22;26989;45.524;10.938;2023-09-19T00:05:41;19.80;99.90
41256;DHT22;26989;45.524;10.938;2023-09-19T00:08:13;19.70;99.90
41256;DHT22;26989;45.524;10.938;2023-09-19T00:10:43;19.70;99.90
41256;DHT22;26989;45.524;10.938;2023-09-19T00:13:11;19.70;99.90
41256;DHT22;26989;45.524;10.938;2023-09-19T00:15:43;19.70;99.90
41256;DHT22;26989;45.524;10.938;2023-09-19T00:18:15;19.70;99.90
41256;DHT22;26989;45.524;10.938;2023-09-19T00:20:44;19.70;99.90
41256;DHT22;26989;45.524;10.938;2023-09-19T00:23:14;19.60;99.90
41256;DHT22;26989;45.524;10.938;2023-09-19T00:25:41;19.60;99.90
41256;DHT22;26989;45.524;10.938;2023-09-19T00:28:08;19.50;99.90
41256;DHT22;26989;45.524;10.938;2023-09-19T00:30:36;19.50;99.90
41256;DHT22;26989;45.524;10.938;2023-09-19T00:33:05;19.50;99.90
41256;DHT22;26989;45.524;10.938;2023-09-19T00:35:34;19.40;99.90
41256;DHT22;26989;45.524;10.938;2023-09-19T00:38:01;19.50;99.90
41256;DHT22;26989;45.524;10.938;2023-09-19T00:40:29;19.40;99.90
41256;DHT22;26989;45.524;10.938;2023-09-19T00:42:59;19.40;99.90
41256;DHT22;26989;45.524;10.938;2023-09-19T00:45:27;19.40;99.90
41256;DHT22;26989;45.524;10.938;2023-09-19T00:47:55;19.40;99.90
41256;DHT22;26989;45.524;10.938;2023-09-19T00:50:25;19.40;99.90
41256;DHT22;26989;45.524;10.938;2023-09-19T00:52:56;19.40;99.90
41256;DHT22;26989;45.524;10.938;2023-09-19T00:55:24;19.40;99.90
41256;DHT22;26989;45.524;10.938;2023-09-19T00:57:52;19.40;99.90
41256;DHT22;26989;45.524;10.938;2023-09-19T01:00:19;19.40;99.90
41256;DHT22;26989;45.524;10.938;2023-09-19T01:02:47;19.50;99.90
41256;DHT22;26989;45.524;10.938;2023-09-19T01:05:15;19.40;99.90
41256;DHT22;26989;45.524;10.938;2023-09-19T01:07:42;19.40;99.90
41256;DHT22;26989;45.524;10.938;2023-09-19T01:10:17;19.40;99.90
41256;DHT22;26989;45.524;10.938;2023-09-19T01:13:39;19.30;99.90
41256;DHT22;26989;45.524;10.938;2023-09-19T01:15:55;19.20;99.90
41256;DHT22;26989;45.524;10.938;2023-09-19T01:24:41;19.20;99.90
41256;DHT22;26989;45.524;10.938;2023-09-19T01:29:48;19.20;99.90
41256;DHT22;26989;45.524;10.938;2023-09-19T01:32:17;19.20;99.90
41256;DHT22;26989;45.524;10.938;2023-09-19T01:34:53;19.10;99.90
41256;DHT22;26989;45.524;10.938;2023-09-19T01:37:23;19.10;99.90
41256;DHT22;26989;45.524;10.938;2023-09-19T01:40:04;19.00;99.90
41256;DHT22;26989;45.524;10.938;2023-09-19T01:42:57;19.00;99.90
41256;DHT22;26989;45.524;10.938;2023-09-19T01:48:43;19.00;99.90
41256;DHT22;26989;45.524;10.938;2023-09-19T01:51:20;19.00;99.90
41256;DHT22;26989;45.524;10.938;2023-09-19T01:54:00;19.00;99.90
41256;DHT22;26989;45.524;10.938;2023-09-19T01:59:07;19.00;99.90
41256;DHT22;26989;45.524;10.938;2023-09-19T02:01:37;18.90;99.90
41256;DHT22;26989;45.524;10.938;2023-09-19T02:04:05;18.80;99.90
41256;DHT22;26989;45.524;10.938;2023-09-19T02:06:32;18.80;99.90
41256;DHT22;26989;45.524;10.938;2023-09-19T02:09:00;18.80;99.90
41256;DHT22;26989;45.524;10.938;2023-09-19T02:11:27;18.90;99.90
41256;DHT22;26989;45.524;10.938;2023-09-19T02:13:55;18.90;99.90
41256;DHT22;26989;45.524;10.938;2023-09-19T02:16:22;18.80;99.90
41256;DHT22;26989;45.524;10.938;2023-09-19T02:18:49;18.80;99.90
41256;DHT22;26989;45.524;10.938;2023-09-19T02:21:17;18.80;99.90
41256;DHT22;26989;45.524;10.938;2023-09-19T02:23:44;18.80;99.90
41256;DHT22;26989;45.524;10.938;2023-09-19T02:26:14;18.80;99.90
41256;DHT22;26989;45.524;10.938;2023-09-19T02:28:40;18.80;99.90
41256;DHT22;26989;45.524;10.938;2023-09-19T02:31:07;18.70;99.90
41256;DHT22;26989;45.524;10.938;2023-09-19T02:33:34;18.70;99.90
41256;DHT22;26989;45.524;10.938;2023-09-19T02:36:02;18.70;99.90
41256;DHT22;26989;45.524;10.938;2023-09-19T02:38:30;18.70;99.90
41256;DHT22;26989;45.524;10.938;2023-09-19T02:40:57;18.70;99.90
41256;DHT22;26989;45.524;10.938;2023-09-19T02:43:24;18.70;99.90
41256;DHT22;26989;45.524;10.938;2023-09-19T02:45:51;18.70;99.90
41256;DHT22;26989;45.524;10.938;2023-09-19T02:48:21;18.70;99.90
41256;DHT22;26989;45.524;10.938;2023-09-19T02:50:52;18.60;99.90
41256;DHT22;26989;45.524;10.938;2023-09-19T02:53:19;18.70;99.90
41256;DHT22;26989;45.524;10.938;2023-09-19T02:55:46;18.60;99.90
41256;DHT22;26989;45.524;10.938;2023-09-19T02:58:14;18.60;99.90
41256;DHT22;26989;45.524;10.938;2023-09-19T03:00:41;18.60;99.90
41256;DHT22;26989;45.524;10.938;2023-09-19T03:03:09;18.70;99.90
41256;DHT22;26989;45.524;10.938;2023-09-19T03:05:36;18.70;99.90
41256;DHT22;26989;45.524;10.938;2023-09-19T03:08:05;18.70;99.90
41256;DHT22;26989;45.524;10.938;2023-09-19T03:10:33;18.70;99.90
41256;DHT22;26989;45.524;10.938;2023-09-19T03:13:00;18.80;99.90
41256;DHT22;26989;45.524;10.938;2023-09-19T03:15:26;18.70;99.90
41256;DHT22;26989;45.524;10.938;2023-09-19T03:17:54;18.80;99.90
41256;DHT22;26989;45.524;10.938;2023-09-19T03:20:21;18.70;99.90
41256;DHT22;26989;45.524;10.938;2023-09-19T03:22:52;18.70;99.90
41256;DHT22;26989;45.524;10.938;2023-09-19T03:25:19;18.70;99.90
41256;DHT22;26989;45.524;10.938;2023-09-19T03:27:46;18.70;99.90
41256;DHT22;26989;45.524;10.938;2023-09-19T03:30:13;18.70;99.90
41256;DHT22;26989;45.524;10.938;2023-09-19T03:32:47;18.70;99.90
41256;DHT22;26989;45.524;10.938;2023-09-19T03:35:17;18.90;99.90
41256;DHT22;26989;45.524;10.938;2023-09-19T03:37:44;18.90;99.90
41256;DHT22;26989;45.524;10.938;2023-09-19T03:40:12;18.90;99.90
41256;DHT22;26989;45.524;10.938;2023-09-19T03:42:42;19.00;99.90
41256;DHT22;26989;45.524;10.938;2023-09-19T03:45:09;19.30;99.90
41256;DHT22;26989;45.524;10.938;2023-09-19T03:47:40;19.30;99.90
41256;DHT22;26989;45.524;10.938;2023-09-19T03:50:08;19.40;99.90
41256;DHT22;26989;45.524;10.938;2023-09-19T03:52:37;19.60;99.90
41256;DHT22;26989;45.524;10.938;2023-09-19T03:55:04;19.50;99.90
41256;DHT22;26989;45.524;10.938;2023-09-19T03:57:32;19.60;99.90
41256;DHT22;26989;45.524;10.938;2023-09-19T03:59:59;19.60;99.90
41256;DHT22;26989;45.524;10.938;2023-09-19T04:02:26;19.60;99.90
41256;DHT22;26989;45.524;10.938;2023-09-19T04:04:53;19.60;99.90
41256;DHT22;26989;45.524;10.938;2023-09-19T04:07:20;19.70;99.90
41256;DHT22;26989;45.524;10.938;2023-09-19T04:09:49;19.70;99.90
41256;DHT22;26989;45.524;10.938;2023-09-19T04:12:16;19.70;99.90
41256;DHT22;26989;45.524;10.938;2023-09-19T04:14:46;19.80;99.90
41256;DHT22;26989;45.524;10.938;2023-09-19T04:17:13;19.80;99.90
41256;DHT22;26989;45.524;10.938;2023-09-19T04:19:40;19.90;99.90
41256;DHT22;26989;45.524;10.938;2023-09-19T04:22:08;19.80;99.90
41256;DHT22;26989;45.524;10.938;2023-09-19T04:24:35;19.90;99.90
41256;DHT22;26989;45.524;10.938;2023-09-19T04:27:05;19.90;99.90
41256;DHT22;26989;45.524;10.938;2023-09-19T04:29:32;19.60;99.90
41256;DHT22;26989;45.524;10.938;2023-09-19T04:31:59;19.30;99.90
41256;DHT22;26989;45.524;10.938;2023-09-19T04:34:26;19.20;99.90
41256;DHT22;26989;45.524;10.938;2023-09-19T04:36:54;19.40;99.90
41256;DHT22;26989;45.524;10.938;2023-09-19T04:39:23;19.10;99.90
41256;DHT22;26989;45.524;10.938;2023-09-19T04:41:52;19.00;99.90
41256;DHT22;26989;45.524;10.938;2023-09-19T04:44:19;19.00;99.90
41256;DHT22;26989;45.524;10.938;2023-09-19T04:46:46;18.90;99.90
41256;DHT22;26989;45.524;10.938;2023-09-19T04:49:13;18.90;99.90
41256;DHT22;26989;45.524;10.938;2023-09-19T04:51:40;18.90;99.90
41256;DHT22;26989;45.524;10.938;2023-09-19T04:54:08;19.10;99.90
41256;DHT22;26989;45.524;10.938;2023-09-19T04:56:35;19.20;99.90
41256;DHT22;26989;45.524;10.938;2023-09-19T04:59:02;19.10;99.90
41256;DHT22;26989;45.524;10.938;2023-09-19T05:01:29;19.10;99.90
41256;DHT22;26989;45.524;10.938;2023-09-19T05:03:57;19.00;99.90
41256;DHT22;26989;45.524;10.938;2023-09-19T05:06:24;19.00;99.90
41256;DHT22;26989;45.524;10.938;2023-09-19T05:08:53;19.00;99.90
41256;DHT22;26989;45.524;10.938;2023-09-19T05:11:20;19.00;99.90
41256;DHT22;26989;45.524;10.938;2023-09-19T05:13:49;18.90;99.90
41256;DHT22;26989;45.524;10.938;2023-09-19T05:16:20;18.70;99.90
41256;DHT22;26989;45.524;10.938;2023-09-19T05:18:47;18.70;99.90
41256;DHT22;26989;45.524;10.938;2023-09-19T05:21:14;18.90;99.90
41256;DHT22;26989;45.524;10.938;2023-09-19T05:23:40;18.90;99.90
41256;DHT22;26989;45.524;10.938;2023-09-19T05:26:08;18.90;99.90
41256;DHT22;26989;45.524;10.938;2023-09-19T05:28:37;19.00;99.90
41256;DHT22;26989;45.524;10.938;2023-09-19T05:31:04;18.90;99.90
41256;DHT22;26989;45.524;10.938;2023-09-19T05:33:31;18.80;99.90
41256;DHT22;26989;45.524;10.938;2023-09-19T05:36:00;18.80;99.90
41256;DHT22;26989;45.524;10.938;2023-09-19T05:38:27;18.90;99.90
41256;DHT22;26989;45.524;10.938;2023-09-19T05:40:54;18.80;99.90
41256;DHT22;26989;45.524;10.938;2023-09-19T05:43:21;18.90;99.90
41256;DHT22;26989;45.524;10.938;2023-09-19T05:45:48;19.00;99.90
41256;DHT22;26989;45.524;10.938;2023-09-19T05:48:19;19.00;99.90
41256;DHT22;26989;45.524;10.938;2023-09-19T05:50:48;19.20;99.90
41256;DHT22;26989;45.524;10.938;2023-09-19T05:53:17;19.30;99.90
41256;DHT22;26989;45.524;10.938;2023-09-19T05:55:45;19.50;99.90
41256;DHT22;26989;45.524;10.938;2023-09-19T05:58:12;19.70;99.90
41256;DHT22;26989;45.524;10.938;2023-09-19T06:00:41;20.20;99.90
41256;DHT22;26989;45.524;10.938;2023-09-19T06:03:09;21.30;99.90
41256;DHT22;26989;45.524;10.938;2023-09-19T06:05:36;22.50;99.90
41256;DHT22;26989;45.524;10.938;2023-09-19T06:08:08;23.40;99.90
41256;DHT22;26989;45.524;10.938;2023-09-19T06:10:36;23.50;99.90
41256;DHT22;26989;45.524;10.938;2023-09-19T06:13:03;23.60;99.90
41256;DHT22;26989;45.524;10.938;2023-09-19T06:15:36;24.20;99.90
41256;DHT22;26989;45.524;10.938;2023-09-19T06:18:03;26.00;99.90
41256;DHT22;26989;45.524;10.938;2023-09-19T06:20:31;26.10;99.90
41256;DHT22;26989;45.524;10.938;2023-09-19T06:23:00;25.60;99.90
41256;DHT22;26989;45.524;10.938;2023-09-19T06:25:28;25.40;99.90
41256;DHT22;26989;45.524;10.938;2023-09-19T06:27:55;23.70;99.90
41256;DHT22;26989;45.524;10.938;2023-09-19T06:30:24;23.00;99.90
41256;DHT22;26989;45.524;10.938;2023-09-19T06:32:59;22.40;99.90
41256;DHT22;26989;45.524;10.938;2023-09-19T06:35:28;22.00;99.90
41256;DHT22;26989;45.524;10.938;2023-09-19T06:38:02;21.80;99.90
41256;DHT22;26989;45.524;10.938;2023-09-19T06:40:29;21.60;99.90
41256;DHT22;26989;45.524;10.938;2023-09-19T06:42:57;21.50;99.90
41256;DHT22;26989;45.524;10.938;2023-09-19T06:45:24;21.60;99.90
41256;DHT22;26989;45.524;10.938;2023-09-19T06:47:54;21.60;99.90
41256;DHT22;26989;45.524;10.938;2023-09-19T06:50:26;21.50;99.90
41256;DHT22;26989;45.524;10.938;2023-09-19T06:52:54;21.30;99.90
41256;DHT22;26989;45.524;10.938;2023-09-19T06:55:24;21.40;99.90
41256;DHT22;26989;45.524;10.938;2023-09-19T06:57:52;21.50;99.90
41256;DHT22;26989;45.524;10.938;2023-09-19T07:00:21;21.50;99.90
41256;DHT22;26989;45.524;10.938;2023-09-19T07:03:02;21.60;99.90
41256;DHT22;26989;45.524;10.938;2023-09-19T07:05:31;21.60;99.90
41256;DHT22;26989;45.524;10.938;2023-09-19T07:07:59;21.70;99.90
41256;DHT22;26989;45.524;10.938;2023-09-19T07:10:27;21.70;99.90
41256;DHT22;26989;45.524;10.938;2023-09-19T07:13:03;21.80;99.90
41256;DHT22;26989;45.524;10.938;2023-09-19T07:15:32;21.80;99.90
41256;DHT22;26989;45.524;10.938;2023-09-19T07:18:02;21.70;99.90
41256;DHT22;26989;45.524;10.938;2023-09-19T07:20:30;21.80;99.90
41256;DHT22;26989;45.524;10.938;2023-09-19T07:22:59;21.80;99.90
41256;DHT22;26989;45.524;10.938;2023-09-19T07:25:30;21.90;99.90
41256;DHT22;26989;45.524;10.938;2023-09-19T07:27:58;21.90;99.90
41256;DHT22;26989;45.524;10.938;2023-09-19T07:30:27;22.00;99.90
41256;DHT22;26989;45.524;10.938;2023-09-19T07:32:54;22.10;99.90
41256;DHT22;26989;45.524;10.938;2023-09-19T07:35:21;22.10;99.90
41256;DHT22;26989;45.524;10.938;2023-09-19T07:37:49;22.10;99.90
41256;DHT22;26989;45.524;10.938;2023-09-19T07:40:17;22.10;99.90
41256;DHT22;26989;45.524;10.938;2023-09-19T07:42:44;22.20;99.90
41256;DHT22;26989;45.524;10.938;2023-09-19T07:45:14;22.20;99.90
41256;DHT22;26989;45.524;10.938;2023-09-19T07:47:49;22.20;99.90
41256;DHT22;26989;45.524;10.938;2023-09-19T07:50:17;22.20;99.90
41256;DHT22;26989;45.524;10.938;2023-09-19T07:52:48;22.30;99.90
41256;DHT22;26989;45.524;10.938;2023-09-19T07:55:17;22.50;99.90
41256;DHT22;26989;45.524;10.938;2023-09-19T07:57:47;22.50;99.90
41256;DHT22;26989;45.524;10.938;2023-09-19T08:00:14;22.50;99.90
41256;DHT22;26989;45.524;10.938;2023-09-19T08:02:42;22.60;99.90
41256;DHT22;26989;45.524;10.938;2023-09-19T08:05:10;22.60;99.90
41256;DHT22;26989;45.524;10.938;2023-09-19T08:07:39;22.70;99.90
41256;DHT22;26989;45.524;10.938;2023-09-19T08:10:07;22.80;99.90
41256;DHT22;26989;45.524;10.938;2023-09-19T08:12:35;22.80;99.90
41256;DHT22;26989;45.524;10.938;2023-09-19T08:15:18;22.90;99.90
41256;DHT22;26989;45.524;10.938;2023-09-19T08:17:48;23.00;99.90
41256;DHT22;26989;45.524;10.938;2023-09-19T08:20:16;23.00;99.90
41256;DHT22;26989;45.524;10.938;2023-09-19T08:22:49;23.00;99.90
41256;DHT22;26989;45.524;10.938;2023-09-19T08:25:16;23.10;99.90
41256;DHT22;26989;45.524;10.938;2023-09-19T08:27:46;23.10;99.90
41256;DHT22;26989;45.524;10.938;2023-09-19T08:30:20;23.20;99.90
41256;DHT22;26989;45.524;10.938;2023-09-19T08:32:56;23.20;99.90
41256;DHT22;26989;45.524;10.938;2023-09-19T08:35:25;23.30;99.90
41256;DHT22;26989;45.524;10.938;2023-09-19T08:37:52;23.40;99.90
41256;DHT22;26989;45.524;10.938;2023-09-19T08:40:19;23.40;99.90
41256;DHT22;26989;45.524;10.938;2023-09-19T08:42:54;23.50;99.90
41256;DHT22;26989;45.524;10.938;2023-09-19T08:45:22;23.60;99.90
41256;DHT22;26989;45.524;10.938;2023-09-19T08:48:00;23.70;99.90
41256;DHT22;26989;45.524;10.938;2023-09-19T08:50:30;23.80;99.90
41256;DHT22;26989;45.524;10.938;2023-09-19T08:53:01;23.90;99.90
41256;DHT22;26989;45.524;10.938;2023-09-19T08:55:28;23.80;99.90
41256;DHT22;26989;45.524;10.938;2023-09-19T08:58:04;23.90;99.90
41256;DHT22;26989;45.524;10.938;2023-09-19T09:00:35;23.80;99.90
41256;DHT22;26989;45.524;10.938;2023-09-19T09:03:03;23.60;99.90
41256;DHT22;26989;45.524;10.938;2023-09-19T09:05:35;23.60;99.90
41256;DHT22;26989;45.524;10.938;2023-09-19T09:08:05;23.80;99.90
41256;DHT22;26989;45.524;10.938;2023-09-19T09:10:34;24.10;99.90
41256;DHT22;26989;45.524;10.938;2023-09-19T09:13:01;24.00;99.90
41256;DHT22;26989;45.524;10.938;2023-09-19T09:15:30;24.00;99.90
41256;DHT22;26989;45.524;10.938;2023-09-19T09:17:58;24.10;99.90
41256;DHT22;26989;45.524;10.938;2023-09-19T09:20:26;24.10;99.90
41256;DHT22;26989;45.524;10.938;2023-09-19T09:22:55;24.10;99.90
41256;DHT22;26989;45.524;10.938;2023-09-19T09:25:52;24.20;99.90
41256;DHT22;26989;45.524;10.938;2023-09-19T09:28:27;24.40;99.90
41256;DHT22;26989;45.524;10.938;2023-09-19T09:30:55;24.50;99.90
41256;DHT22;26989;45.524;10.938;2023-09-19T09:33:23;24.50;99.90
41256;DHT22;26989;45.524;10.938;2023-09-19T09:35:58;24.50;99.90
41256;DHT22;26989;45.524;10.938;2023-09-19T09:38:49;24.90;99.90
41256;DHT22;26989;45.524;10.938;2023-09-19T09:41:16;25.00;99.90
41256;DHT22;26989;45.524;10.938;2023-09-19T09:43:54;24.90;99.90
41256;DHT22;26989;45.524;10.938;2023-09-19T09:46:21;24.70;99.90
41256;DHT22;26989;45.524;10.938;2023-09-19T09:51:41;24.60;99.90
41256;DHT22;26989;45.524;10.938;2023-09-19T09:54:25;24.60;99.90
41256;DHT22;26989;45.524;10.938;2023-09-19T09:57:02;24.60;99.90
41256;DHT22;26989;45.524;10.938;2023-09-19T09:59:55;24.70;99.90
41256;DHT22;26989;45.524;10.938;2023-09-19T10:02:29;24.80;99.90
41256;DHT22;26989;45.524;10.938;2023-09-19T10:07:48;24.80;99.90
41256;DHT22;26989;45.524;10.938;2023-09-19T10:10:34;24.80;99.90
41256;DHT22;26989;45.524;10.938;2023-09-19T10:13:21;24.80;99.90
41256;DHT22;26989;45.524;10.938;2023-09-19T10:15:51;24.90;99.90
41256;DHT22;26989;45.524;10.938;2023-09-19T10:18:24;24.80;99.90
41256;DHT22;26989;45.524;10.938;2023-09-19T10:20:51;24.80;99.90
41256;DHT22;26989;45.524;10.938;2023-09-19T10:23:20;24.80;99.90
41256;DHT22;26989;45.524;10.938;2023-09-19T10:25:51;24.80;99.90
41256;DHT22;26989;45.524;10.938;2023-09-19T10:28:20;24.80;99.90
41256;DHT22;26989;45.524;10.938;2023-09-19T10:30:52;24.70;99.90
41256;DHT22;26989;45.524;10.938;2023-09-19T10:33:24;24.70;99.90
41256;DHT22;26989;45.524;10.938;2023-09-19T10:35:54;24.70;99.90
41256;DHT22;26989;45.524;10.938;2023-09-19T10:38:27;24.80;99.90
41256;DHT22;26989;45.524;10.938;2023-09-19T10:40:56;24.80;99.90
41256;DHT22;26989;45.524;10.938;2023-09-19T10:43:32;24.90;99.90
41256;DHT22;26989;45.524;10.938;2023-09-19T10:46:07;24.90;99.90
41256;DHT22;26989;45.524;10.938;2023-09-19T10:48:34;25.20;99.90
41256;DHT22;26989;45.524;10.938;2023-09-19T10:51:21;25.20;99.90
41256;DHT22;26989;45.524;10.938;2023-09-19T10:53:57;25.10;99.90
41256;DHT22;26989;45.524;10.938;2023-09-19T10:56:37;25.10;99.90
41256;DHT22;26989;45.524;10.938;2023-09-19T10:59:09;25.00;99.90
41256;DHT22;26989;45.524;10.938;2023-09-19T11:01:44;25.10;99.90
41256;DHT22;26989;45.524;10.938;2023-09-19T11:07:07;25.20;99.90
41256;DHT22;26989;45.524;10.938;2023-09-19T11:09:56;25.30;99.90
41256;DHT22;26989;45.524;10.938;2023-09-19T11:15:03;25.40;99.90
41256;DHT22;26989;45.524;10.938;2023-09-19T11:17:35;25.60;99.90
41256;DHT22;26989;45.524;10.938;2023-09-19T11:30:48;26.10;99.90
41256;DHT22;26989;45.524;10.938;2023-09-19T11:33:19;26.00;99.90
41256;DHT22;26989;45.524;10.938;2023-09-19T11:36:16;26.10;99.90
41256;DHT22;26989;45.524;10.938;2023-09-19T11:46:55;25.70;99.90
41256;DHT22;26989;45.524;10.938;2023-09-19T11:49:30;25.90;99.90
41256;DHT22;26989;45.524;10.938;2023-09-19T11:52:00;25.90;99.90
41256;DHT22;26989;45.524;10.938;2023-09-19T11:54:36;25.90;99.90
41256;DHT22;26989;45.524;10.938;2023-09-19T11:57:07;26.00;99.90
41256;DHT22;26989;45.524;10.938;2023-09-19T11:59:38;26.20;99.90
41256;DHT22;26989;45.524;10.938;2023-09-19T12:02:06;26.30;99.90
41256;DHT22;26989;45.524;10.938;2023-09-19T12:04:39;26.20;99.90
41256;DHT22;26989;45.524;10.938;2023-09-19T12:07:10;26.20;99.90
41256;DHT22;26989;45.524;10.938;2023-09-19T12:09:43;26.10;99.90
41256;DHT22;26989;45.524;10.938;2023-09-19T12:12:24;26.10;99.90
41256;DHT22;26989;45.524;10.938;2023-09-19T12:14:55;26.10;99.90
41256;DHT22;26989;45.524;10.938;2023-09-19T12:17:41;26.20;99.90
41256;DHT22;26989;45.524;10.938;2023-09-19T12:20:11;26.10;99.90
41256;DHT22;26989;45.524;10.938;2023-09-19T12:22:44;26.10;99.90
41256;DHT22;26989;45.524;10.938;2023-09-19T12:25:14;26.00;99.90
41256;DHT22;26989;45.524;10.938;2023-09-19T12:27:44;26.10;99.90
41256;DHT22;26989;45.524;10.938;2023-09-19T12:30:16;26.10;99.90
41256;DHT22;26989;45.524;10.938;2023-09-19T12:32:54;26.10;99.90
41256;DHT22;26989;45.524;10.938;2023-09-19T12:35:30;26.20;99.90
41256;DHT22;26989;45.524;10.938;2023-09-19T12:37:57;26.30;99.90
41256;DHT22;26989;45.524;10.938;2023-09-19T12:40:25;26.60;99.90
41256;DHT22;26989;45.524;10.938;2023-09-19T12:42:57;26.60;99.90
41256;DHT22;26989;45.524;10.938;2023-09-19T12:45:30;26.60;99.90
41256;DHT22;26989;45.524;10.938;2023-09-19T12:48:23;26.70;99.90
41256;DHT22;26989;45.524;10.938;2023-09-19T12:53:38;26.70;99.90
41256;DHT22;26989;45.524;10.938;2023-09-19T12:56:17;26.80;99.90
41256;DHT22;26989;45.524;10.938;2023-09-19T12:58:56;26.90;99.90
41256;DHT22;26989;45.524;10.938;2023-09-19T13:01:26;26.80;99.90
41256;DHT22;26989;45.524;10.938;2023-09-19T13:04:18;26.90;99.90
41256;DHT22;26989;45.524;10.938;2023-09-19T13:06:47;27.10;99.90
41256;DHT22;26989;45.524;10.938;2023-09-19T13:09:17;27.10;99.90
41256;DHT22;26989;45.524;10.938;2023-09-19T13:11:44;27.00;99.90
41256;DHT22;26989;45.524;10.938;2023-09-19T13:14:16;26.90;99.90
41256;DHT22;26989;45.524;10.938;2023-09-19T13:17:13;27.00;99.90
41256;DHT22;26989;45.524;10.938;2023-09-19T13:19:46;27.00;99.90
41256;DHT22;26989;45.524;10.938;2023-09-19T13:22:45;27.00;99.90
41256;DHT22;26989;45.524;10.938;2023-09-19T13:25:18;26.90;99.90
41256;DHT22;26989;45.524;10.938;2023-09-19T13:27:54;26.90;99.90
41256;DHT22;26989;45.524;10.938;2023-09-19T13:30:29;26.80;99.90
41256;DHT22;26989;45.524;10.938;2023-09-19T13:33:10;26.80;99.90
41256;DHT22;26989;45.524;10.938;2023-09-19T13:35:38;26.90;99.90
41256;DHT22;26989;45.524;10.938;2023-09-19T13:38:07;26.90;99.90
41256;DHT22;26989;45.524;10.938;2023-09-19T13:40:39;27.10;99.90
41256;DHT22;26989;45.524;10.938;2023-09-19T13:43:09;27.20;99.90
41256;DHT22;26989;45.524;10.938;2023-09-19T13:45:35;27.20;99.90
41256;DHT22;26989;45.524;10.938;2023-09-19T13:48:04;27.30;99.90
41256;DHT22;26989;45.524;10.938;2023-09-19T13:50:31;27.20;99.90
41256;DHT22;26989;45.524;10.938;2023-09-19T13:52:58;27.10;99.90
41256;DHT22;26989;45.524;10.938;2023-09-19T13:55:27;27.20;99.90
41256;DHT22;26989;45.524;10.938;2023-09-19T13:57:54;27.20;99.90
41256;DHT22;26989;45.524;10.938;2023-09-19T14:00:23;27.10;99.90
41256;DHT22;26989;45.524;10.938;2023-09-19T14:02:50;27.20;99.90
41256;DHT22;26989;45.524;10.938;2023-09-19T14:05:18;27.20;99.90
41256;DHT22;26989;45.524;10.938;2023-09-19T14:07:45;27.30;99.90
41256;DHT22;26989;45.524;10.938;2023-09-19T14:10:13;27.40;99.90
41256;DHT22;26989;45.524;10.938;2023-09-19T14:12:42;27.50;99.90
41256;DHT22;26989;45.524;10.938;2023-09-19T14:15:11;27.40;99.90
41256;DHT22;26989;45.524;10.938;2023-09-19T14:17:38;27.30;99.90
41256;DHT22;26989;45.524;10.938;2023-09-19T14:20:06;27.40;99.90
41256;DHT22;26989;45.524;10.938;2023-09-19T14:22:34;27.30;99.90
41256;DHT22;26989;45.524;10.938;2023-09-19T14:25:02;27.30;99.90
41256;DHT22;26989;45.524;10.938;2023-09-19T14:27:30;27.30;99.90
41256;DHT22;26989;45.524;10.938;2023-09-19T14:29:57;27.40;99.90
41256;DHT22;26989;45.524;10.938;2023-09-19T14:32:24;27.50;99.90
41256;DHT22;26989;45.524;10.938;2023-09-19T14:34:52;27.50;99.90
41256;DHT22;26989;45.524;10.938;2023-09-19T14:37:19;27.60;99.90
41256;DHT22;26989;45.524;10.938;2023-09-19T14:39:49;27.60;99.90
41256;DHT22;26989;45.524;10.938;2023-09-19T14:42:16;27.70;99.90
41256;DHT22;26989;45.524;10.938;2023-09-19T14:44:44;27.70;99.90
41256;DHT22;26989;45.524;10.938;2023-09-19T14:47:14;27.80;99.90
41256;DHT22;26989;45.524;10.938;2023-09-19T14:49:42;27.90;99.90
41256;DHT22;26989;45.524;10.938;2023-09-19T14:52:09;27.90;99.90
41256;DHT22;26989;45.524;10.938;2023-09-19T14:54:37;27.90;99.90
41256;DHT22;26989;45.524;10.938;2023-09-19T14:57:04;28.00;99.90
41256;DHT22;26989;45.524;10.938;2023-09-19T14:59:31;27.90;99.90
41256;DHT22;26989;45.524;10.938;2023-09-19T15:01:59;28.00;99.90
41256;DHT22;26989;45.524;10.938;2023-09-19T15:04:27;28.00;99.90
41256;DHT22;26989;45.524;10.938;2023-09-19T15:06:54;28.00;99.90
41256;DHT22;26989;45.524;10.938;2023-09-19T15:09:23;28.10;99.90
41256;DHT22;26989;45.524;10.938;2023-09-19T15:11:53;28.10;99.90
41256;DHT22;26989;45.524;10.938;2023-09-19T15:14:20;27.90;99.90
41256;DHT22;26989;45.524;10.938;2023-09-19T15:16:48;28.00;99.90
41256;DHT22;26989;45.524;10.938;2023-09-19T15:19:15;28.00;99.90
41256;DHT22;26989;45.524;10.938;2023-09-19T15:21:43;27.90;99.90
41256;DHT22;26989;45.524;10.938;2023-09-19T15:24:10;28.00;99.90
41256;DHT22;26989;45.524;10.938;2023-09-19T15:26:37;28.00;99.90
41256;DHT22;26989;45.524;10.938;2023-09-19T15:29:10;28.10;99.90
41256;DHT22;26989;45.524;10.938;2023-09-19T15:31:37;27.90;99.90
41256;DHT22;26989;45.524;10.938;2023-09-19T15:34:05;27.90;99.90
41256;DHT22;26989;45.524;10.938;2023-09-19T15:36:34;28.00;99.90
41256;DHT22;26989;45.524;10.938;2023-09-19T15:39:01;28.10;99.90
41256;DHT22;26989;45.524;10.938;2023-09-19T15:44:01;28.10;99.90
41256;DHT22;26989;45.524;10.938;2023-09-19T15:46:30;28.10;99.90
41256;DHT22;26989;45.524;10.938;2023-09-19T15:48:57;28.00;99.90
41256;DHT22;26989;45.524;10.938;2023-09-19T15:51:24;27.90;99.90
41256;DHT22;26989;45.524;10.938;2023-09-19T15:53:52;27.60;99.90
41256;DHT22;26989;45.524;10.938;2023-09-19T15:56:20;27.30;99.90
41256;DHT22;26989;45.524;10.938;2023-09-19T15:58:52;27.20;99.90
41256;DHT22;26989;45.524;10.938;2023-09-19T16:01:23;27.20;99.90
41256;DHT22;26989;45.524;10.938;2023-09-19T16:03:52;27.30;99.90
41256;DHT22;26989;45.524;10.938;2023-09-19T16:06:21;27.40;99.90
41256;DHT22;26989;45.524;10.938;2023-09-19T16:08:52;27.30;99.90
41256;DHT22;26989;45.524;10.938;2023-09-19T16:11:19;27.30;99.90
41256;DHT22;26989;45.524;10.938;2023-09-19T16:13:50;27.40;99.90
41256;DHT22;26989;45.524;10.938;2023-09-19T16:16:18;27.30;99.90
41256;DHT22;26989;45.524;10.938;2023-09-19T16:18:56;27.20;99.90
41256;DHT22;26989;45.524;10.938;2023-09-19T16:21:25;27.10;99.90
41256;DHT22;26989;45.524;10.938;2023-09-19T16:23:57;27.00;99.90